Archival Weather

Chicago O'Hare International

Chicago, Illinois (KORD)

Report from: Sunday, March 6, 2022 11:59 PM CST
Current time: Saturday, February 4, 2023 10:23 PM CST

Current weather
Weather history
Weather forecast

Present weatherLight snow
Temperature1.7°C (35.1°F)
Wind chill-2.9°C (26.8°F)
Dew point-1.1°C (30.0°F)
Winds 10 kts (5.1 m/s, 11.5 mph) Northeast (40°)
Visibility1.5 mi. (2.4 km)
Clouds Ceiling: Overcast 1,500 ft. (457 m)
Altimeter29.94 in.Hg (1014 mB)
Precipitiation0.01 in. (0 mm)
Relative humidity82 %
Density altitude-1,555 ft. (-474 m)
Remarks System requires maintenance
Automated weather observing station with precipitation discriminator
Pressure falling rapidly
Flight conditions Instrument Meteorological Conditions
Raw dataKORD 070559Z 04010KT 1 1/2SM R10L/4500VP6000FT -SN OVC015 02/M01 A2994 RMK AO2 PRESFR P0001 T00171011 $
An unhandled exception has occurred. See browser dev tools for details. Reload 🗙